createdAt,value
2018-04-06T00:01:54.927Z,6.00
2018-04-06T00:04:24.827Z,6.40
2018-04-06T00:06:54.511Z,6.43
2018-04-06T00:09:23.985Z,5.20
2018-04-06T00:11:53.477Z,5.70
2018-04-06T00:14:23.363Z,5.30
2018-04-06T00:16:52.855Z,7.00
2018-04-06T00:19:22.345Z,4.13
2018-04-06T00:21:51.850Z,5.77
2018-04-06T00:24:21.107Z,3.80
2018-04-06T00:26:50.603Z,4.47
2018-04-06T00:29:20.499Z,8.03
2018-04-06T00:31:50.007Z,7.07
2018-04-06T00:34:19.494Z,6.63
2018-04-06T00:36:49.169Z,4.80
2018-04-06T00:39:18.647Z,6.73
2018-04-06T00:41:48.307Z,7.33
2018-04-06T00:44:17.447Z,4.93
2018-04-06T00:46:47.337Z,4.47
2018-04-06T00:49:16.813Z,4.47
2018-04-06T00:51:46.379Z,4.40
2018-04-06T00:54:16.049Z,5.27
2018-04-06T00:56:45.531Z,4.63
2018-04-06T00:59:15.017Z,4.57
2018-04-06T01:01:44.505Z,4.70
2018-04-06T01:04:14.388Z,3.67
2018-04-06T01:06:43.871Z,4.33
2018-04-06T01:09:13.387Z,7.33
2018-04-06T01:11:42.877Z,4.27
2018-04-06T01:14:12.361Z,4.00
2018-04-06T01:16:41.845Z,4.40
2018-04-06T01:19:11.728Z,6.53
2018-04-06T01:21:41.429Z,6.50
2018-04-06T01:24:10.937Z,5.97
2018-04-06T01:26:40.426Z,6.57
2018-04-06T01:29:09.913Z,6.37
2018-04-06T01:31:39.410Z,7.07
2018-04-06T01:34:09.497Z,5.47
2018-04-06T01:36:39.379Z,4.40
2018-04-06T01:39:08.865Z,7.10
2018-04-06T01:41:38.345Z,5.13
2018-04-06T01:44:07.831Z,5.83
2018-04-06T01:46:37.729Z,6.70
2018-04-06T01:49:07.268Z,7.63
2018-04-06T01:51:37.147Z,7.20
2018-04-06T01:54:06.657Z,5.53
2018-04-06T01:56:36.161Z,7.27
2018-04-06T01:59:05.644Z,7.17
2018-04-06T02:01:35.141Z,8.90
2018-04-06T02:04:04.648Z,7.20
2018-04-06T02:06:34.127Z,6.73
2018-04-06T02:09:03.379Z,11.07
2018-04-06T02:11:32.632Z,7.77
2018-04-06T02:14:02.122Z,7.07
2018-04-06T02:16:31.610Z,7.07
2018-04-06T02:19:01.496Z,8.40
2018-04-06T02:21:30.976Z,8.30
2018-04-06T02:24:00.461Z,10.70
2018-04-06T02:26:29.976Z,7.93
2018-04-06T02:28:59.229Z,7.07
2018-04-06T02:31:28.716Z,7.83
2018-04-06T02:33:58.200Z,7.60
2018-04-06T02:36:27.684Z,8.87
2018-04-06T02:38:57.744Z,8.43
2018-04-06T02:41:27.004Z,7.43
2018-04-06T02:43:56.485Z,6.47
2018-04-06T02:46:26.375Z,8.10
2018-04-06T02:48:55.887Z,5.97
2018-04-06T02:51:25.578Z,7.33
2018-04-06T02:53:55.244Z,7.73
2018-04-06T02:56:24.712Z,7.07
2018-04-06T02:58:54.196Z,9.10
2018-04-06T03:01:23.704Z,7.77
2018-04-06T03:03:53.191Z,7.53
2018-04-06T03:06:22.673Z,7.03
2018-04-06T03:08:52.188Z,7.57
2018-04-06T03:11:21.668Z,6.00
2018-04-06T03:13:51.146Z,8.87
2018-04-06T03:16:20.646Z,6.30
2018-04-06T03:18:50.138Z,7.60
2018-04-06T03:21:19.629Z,6.30
2018-04-06T03:23:49.112Z,6.87
2018-04-06T03:26:18.610Z,8.70
2018-04-06T03:28:48.090Z,7.87
2018-04-06T03:31:18.007Z,7.60
2018-04-06T03:33:47.886Z,9.80
2018-04-06T03:36:17.364Z,6.47
2018-04-06T03:38:46.918Z,8.63
2018-04-06T03:41:16.394Z,7.97
2018-04-06T03:43:45.891Z,8.33
2018-04-06T03:46:15.367Z,6.87
2018-04-06T03:48:44.854Z,7.57
2018-04-06T03:51:14.510Z,6.10
2018-04-06T03:53:44.042Z,8.20
2018-04-06T03:56:13.514Z,7.67
2018-04-06T03:58:42.670Z,8.40
2018-04-06T04:01:12.555Z,8.90
2018-04-06T04:03:42.050Z,5.93
2018-04-06T04:06:11.532Z,7.00
2018-04-06T04:08:41.042Z,7.97
2018-04-06T04:11:10.524Z,7.30
2018-04-06T04:13:40.055Z,8.93
2018-04-06T04:16:09.870Z,7.37
2018-04-06T04:18:39.342Z,6.67
2018-04-06T04:21:08.838Z,5.90
2018-04-06T04:23:38.748Z,9.90
2018-04-06T04:26:08.625Z,9.67
2018-04-06T04:28:38.110Z,8.47
2018-04-06T04:31:07.602Z,8.47
2018-04-06T04:33:37.096Z,7.03
2018-04-06T04:36:06.982Z,7.43
2018-04-06T04:38:36.464Z,9.83
2018-04-06T04:41:05.716Z,8.40
2018-04-06T04:43:35.198Z,9.57
2018-04-06T04:46:05.080Z,7.77
2018-04-06T04:48:34.559Z,9.43
2018-04-06T04:51:04.048Z,6.27
2018-04-06T04:53:33.744Z,7.33
2018-04-06T04:56:03.624Z,8.17
2018-04-06T04:58:33.135Z,6.53
2018-04-06T05:01:02.822Z,8.73
2018-04-06T05:03:32.336Z,8.23
2018-04-06T05:06:01.819Z,7.30
2018-04-06T05:08:31.314Z,6.87
2018-04-06T05:11:00.786Z,9.07
2018-04-06T05:13:30.688Z,7.40
2018-04-06T05:16:00.172Z,9.70
2018-04-06T05:18:29.660Z,7.17
2018-04-06T05:20:59.176Z,7.07
2018-04-06T05:23:28.668Z,7.77
2018-04-06T05:25:58.350Z,7.70
2018-04-06T05:28:27.858Z,9.07
2018-04-06T05:30:57.346Z,7.17
2018-04-06T05:33:27.260Z,7.97
2018-04-06T05:35:57.138Z,7.77
2018-04-06T05:38:26.618Z,9.43
2018-04-06T05:40:56.256Z,17.93
2018-04-06T05:43:25.748Z,12.07
2018-04-06T05:45:55.240Z,10.17
2018-04-06T05:48:24.750Z,9.00
2018-04-06T05:50:54.237Z,9.53
2018-04-06T05:53:23.724Z,8.20
2018-04-06T05:55:53.384Z,12.30
2018-04-06T05:58:22.866Z,10.67
2018-04-06T06:00:52.365Z,10.97
2018-04-06T06:03:21.877Z,6.00
2018-04-06T06:05:51.364Z,12.17
2018-04-06T06:08:20.854Z,8.37
2018-04-06T06:10:50.733Z,7.93
2018-04-06T06:13:20.214Z,8.73
2018-04-06T06:15:49.696Z,7.97
2018-04-06T06:18:18.508Z,6.73
2018-04-06T06:20:47.986Z,7.50
2018-04-06T06:23:17.521Z,11.83
2018-04-06T06:25:47.156Z,7.80
2018-04-06T06:28:16.631Z,4.73
2018-04-06T06:30:46.108Z,10.50
2018-04-06T06:33:15.810Z,5.27
2018-04-06T06:35:45.680Z,6.53
2018-04-06T06:38:15.154Z,6.43
2018-04-06T06:40:44.636Z,7.87
2018-04-06T06:43:14.510Z,8.73
2018-04-06T06:45:43.999Z,5.57
2018-04-06T06:48:13.519Z,6.33
2018-04-06T06:50:43.174Z,5.20
2018-04-06T06:53:12.674Z,4.30
2018-04-06T06:55:42.164Z,5.47
2018-04-06T06:58:12.071Z,4.40
2018-04-06T07:00:41.542Z,7.70
2018-04-06T07:03:11.016Z,4.77
2018-04-06T07:05:40.506Z,4.53
2018-04-06T07:08:10.390Z,5.20
2018-04-06T07:10:39.915Z,6.07
2018-04-06T07:13:09.420Z,6.03
2018-04-06T07:15:38.671Z,4.43
2018-04-06T07:18:08.159Z,5.50
2018-04-06T07:20:37.656Z,4.17
2018-04-06T07:23:06.900Z,4.20
2018-04-06T07:25:36.408Z,4.73
2018-04-06T07:28:05.892Z,6.77
2018-04-06T07:30:35.386Z,4.17
2018-04-06T07:33:04.882Z,4.93
2018-04-06T07:35:34.946Z,5.37
2018-04-06T07:38:04.444Z,4.70
2018-04-06T07:40:33.930Z,5.63
2018-04-06T07:43:03.423Z,5.27
2018-04-06T07:45:32.911Z,5.20
2018-04-06T07:48:02.776Z,5.50
2018-04-06T07:50:32.282Z,6.10
2018-04-06T07:53:01.766Z,6.10
2018-04-06T07:55:31.430Z,7.70
2018-04-06T07:58:01.351Z,7.93
2018-04-06T08:00:31.226Z,5.27
2018-04-06T08:03:00.712Z,5.07
2018-04-06T08:05:30.209Z,4.03
2018-04-06T08:07:59.470Z,5.33
2018-04-06T08:10:29.391Z,5.33
2018-04-06T08:12:59.047Z,6.17
2018-04-06T08:15:28.525Z,4.50
2018-04-06T08:17:58.011Z,4.50
2018-04-06T08:20:27.904Z,5.90
2018-04-06T08:22:57.386Z,4.30
2018-04-06T08:25:26.892Z,6.63
2018-04-06T08:27:56.400Z,4.47
2018-04-06T08:30:25.895Z,6.27
2018-04-06T08:32:55.382Z,5.77
2018-04-06T08:35:25.097Z,6.23
2018-04-06T08:37:54.596Z,5.40
2018-04-06T08:40:24.078Z,6.20
2018-04-06T08:42:53.566Z,4.27
2018-04-06T08:45:23.449Z,4.30
2018-04-06T08:47:52.948Z,7.33
2018-04-06T08:50:22.461Z,5.57
2018-04-06T08:52:51.948Z,8.47
2018-04-06T08:55:21.439Z,4.50
2018-04-06T08:57:50.956Z,6.10
2018-04-06T09:00:20.435Z,6.33
2018-04-06T09:02:49.927Z,5.77
2018-04-06T09:05:19.835Z,7.47
2018-04-06T09:07:49.745Z,5.27
2018-04-06T09:10:19.661Z,5.43
2018-04-06T09:12:49.335Z,6.43
2018-04-06T09:15:18.826Z,7.10
2018-04-06T09:17:48.329Z,5.57
2018-04-06T09:20:17.827Z,7.50
2018-04-06T09:22:47.108Z,5.53
2018-04-06T09:25:16.989Z,6.00
2018-04-06T09:27:46.473Z,10.53
2018-04-06T09:30:15.978Z,6.00
2018-04-06T09:32:45.491Z,6.40
2018-04-06T09:35:14.981Z,4.80
2018-04-06T09:37:44.479Z,6.13
2018-04-06T09:40:13.977Z,4.90
2018-04-06T09:42:43.472Z,10.60
2018-04-06T09:45:12.978Z,6.60
2018-04-06T09:47:42.663Z,5.73
2018-04-06T09:50:12.544Z,5.23
2018-04-06T09:52:42.051Z,6.90
2018-04-06T09:55:11.541Z,5.07
2018-04-06T09:57:41.232Z,5.03
2018-04-06T10:00:10.482Z,5.80
2018-04-06T10:02:40.950Z,6.73
2018-04-06T10:05:10.476Z,5.33
2018-04-06T10:07:39.977Z,5.93
2018-04-06T10:10:09.475Z,5.57
2018-04-06T10:12:38.968Z,4.13
2018-04-06T10:15:08.253Z,5.57
2018-04-06T10:17:38.148Z,4.17
2018-04-06T10:20:07.653Z,4.40
2018-04-06T10:22:37.153Z,3.97
2018-04-06T10:25:06.640Z,5.00
2018-04-06T10:27:36.132Z,4.90
2018-04-06T10:30:05.339Z,4.57
2018-04-06T10:32:34.817Z,4.60
2018-04-06T10:35:04.344Z,4.80
2018-04-06T10:37:34.032Z,4.30
2018-04-06T10:40:03.539Z,5.27
2018-04-06T10:42:33.039Z,6.20
2018-04-06T10:45:02.289Z,4.50
2018-04-06T10:47:31.791Z,4.57
2018-04-06T10:50:01.296Z,5.60
2018-04-06T10:52:30.788Z,4.00
2018-04-06T10:55:00.275Z,5.27
2018-04-06T10:57:29.773Z,4.43
2018-04-06T10:59:59.263Z,5.97
2018-04-06T11:02:28.759Z,3.70
2018-04-06T11:04:58.657Z,4.10
2018-04-06T11:07:28.542Z,4.80
2018-04-06T11:09:57.807Z,4.80
2018-04-06T11:12:27.303Z,4.97
2018-04-06T11:14:56.796Z,3.70
2018-04-06T11:17:26.685Z,4.97
2018-04-06T11:19:56.207Z,4.83
2018-04-06T11:22:26.107Z,3.90
2018-04-06T11:24:55.596Z,3.50
2018-04-06T11:27:25.083Z,3.80
2018-04-06T11:29:54.577Z,5.03
2018-04-06T11:32:24.078Z,4.63
2018-04-06T11:34:53.567Z,3.70
2018-04-06T11:37:23.049Z,3.47
2018-04-06T11:39:54.271Z,10.03
2018-04-06T11:42:23.757Z,5.37
2018-04-06T11:44:53.252Z,4.43
2018-04-06T11:47:22.747Z,3.73
2018-04-06T11:49:52.003Z,4.27
2018-04-06T11:52:22.097Z,5.47
2018-04-06T11:54:51.594Z,5.70
2018-04-06T11:57:21.087Z,3.37
2018-04-06T11:59:50.606Z,4.87
2018-04-06T12:02:20.043Z,4.43
2018-04-06T12:04:49.710Z,3.13
2018-04-06T12:07:18.995Z,3.10
2018-04-06T12:09:48.261Z,2.93
2018-04-06T12:12:18.153Z,6.50
2018-04-06T12:14:47.677Z,3.63
2018-04-06T12:17:17.559Z,4.93
2018-04-06T12:19:47.055Z,4.37
2018-04-06T12:22:16.537Z,5.10
2018-04-06T12:24:46.028Z,5.40
2018-04-06T12:27:15.537Z,4.47
2018-04-06T12:29:45.033Z,3.43
2018-04-06T12:32:14.930Z,5.57
2018-04-06T12:34:44.825Z,4.47
2018-04-06T12:37:14.081Z,3.80
2018-04-06T12:39:43.573Z,4.10
2018-04-06T12:42:13.097Z,4.77
2018-04-06T12:44:42.591Z,7.17
2018-04-06T12:47:12.291Z,7.07
2018-04-06T12:49:41.775Z,5.33
2018-04-06T12:52:11.283Z,4.97
2018-04-06T12:54:40.779Z,6.07
2018-04-06T12:57:10.275Z,5.03
2018-04-06T12:59:39.767Z,5.03
2018-04-06T13:02:09.269Z,5.47
2018-04-06T13:04:38.803Z,7.37
2018-04-06T13:07:08.297Z,6.70
2018-04-06T13:09:37.783Z,4.43
2018-04-06T13:12:07.287Z,6.40
2018-04-06T13:14:36.789Z,4.40
2018-04-06T13:17:06.287Z,4.97
2018-04-06T13:19:35.782Z,5.23
2018-04-06T13:22:05.283Z,5.27
2018-04-06T13:24:34.778Z,4.67
2018-04-06T13:27:04.301Z,5.10
2018-04-06T13:29:33.801Z,4.73
2018-04-06T13:32:03.290Z,4.47
2018-04-06T13:34:33.181Z,5.63
2018-04-06T13:37:02.678Z,4.77
2018-04-06T13:39:32.166Z,4.93
2018-04-06T13:42:01.688Z,4.50
2018-04-06T13:44:31.182Z,5.80
2018-04-06T13:47:00.685Z,6.13
2018-04-06T13:49:29.967Z,4.83
2018-04-06T13:51:59.483Z,4.50
2018-04-06T13:54:28.986Z,5.00
2018-04-06T13:56:58.484Z,7.40
2018-04-06T13:59:27.742Z,7.30
2018-04-06T14:01:57.636Z,5.60
2018-04-06T14:04:26.900Z,6.67
2018-04-06T14:06:56.401Z,4.47
2018-04-06T14:09:25.974Z,4.87
2018-04-06T14:11:55.622Z,12.50
2018-04-06T14:14:25.117Z,5.47
2018-04-06T14:16:54.403Z,4.40
2018-04-06T14:19:24.092Z,5.20
2018-04-06T14:21:53.986Z,4.13
2018-04-06T14:24:23.487Z,6.37
2018-04-06T14:26:52.994Z,5.27
2018-04-06T14:29:22.487Z,5.53
2018-04-06T14:31:51.984Z,5.77
2018-04-06T14:34:21.494Z,4.00
2018-04-06T14:36:50.990Z,6.57
2018-04-06T14:39:20.489Z,5.20
2018-04-06T14:41:50.020Z,5.87
2018-04-06T14:44:19.510Z,4.17
2018-04-06T14:46:49.000Z,4.27
2018-04-06T14:49:18.506Z,4.37
2018-04-06T14:51:48.018Z,6.83
2018-04-06T14:54:17.544Z,5.27
2018-04-06T14:56:47.313Z,4.90
2018-04-06T14:59:16.826Z,4.83
2018-04-06T15:01:46.334Z,5.23
2018-04-06T15:04:15.820Z,4.83
2018-04-06T15:06:45.336Z,4.87
2018-04-06T15:09:14.833Z,5.73
2018-04-06T15:11:44.324Z,7.23
2018-04-06T15:14:14.213Z,4.43
2018-04-06T15:16:43.938Z,5.20
2018-04-06T15:19:13.428Z,6.03
2018-04-06T15:21:42.920Z,6.07
2018-04-06T15:24:12.417Z,4.50
2018-04-06T15:26:41.910Z,5.63
2018-04-06T15:29:11.418Z,4.47
2018-04-06T15:31:40.682Z,5.97
2018-04-06T15:34:10.777Z,5.17
2018-04-06T15:36:40.256Z,7.47
2018-04-06T15:39:09.814Z,8.97
2018-04-06T15:41:39.739Z,5.73
2018-04-06T15:44:09.080Z,9.63
2018-04-06T15:46:38.568Z,4.23
2018-04-06T15:49:08.054Z,4.93
2018-04-06T15:51:37.550Z,5.63
2018-04-06T15:54:07.438Z,5.80
2018-04-06T15:56:36.936Z,5.90
2018-04-06T15:59:06.433Z,7.37
2018-04-06T16:01:35.688Z,5.90
2018-04-06T16:04:05.230Z,8.37
2018-04-06T16:06:34.714Z,6.03
2018-04-06T16:09:03.420Z,5.30
2018-04-06T16:11:32.704Z,9.93
2018-04-06T16:14:01.953Z,6.10
2018-04-06T16:16:31.834Z,4.63
2018-04-06T16:19:01.102Z,5.03
2018-04-06T16:21:30.594Z,6.50
2018-04-06T16:24:00.247Z,7.87
2018-04-06T16:26:29.772Z,5.63
2018-04-06T16:28:59.264Z,4.77
2018-04-06T16:31:28.758Z,5.73
2018-04-06T16:33:58.253Z,4.87
2018-04-06T16:36:27.748Z,5.70
2018-04-06T16:38:57.240Z,5.97
2018-04-06T16:41:26.754Z,5.97
2018-04-06T16:43:56.252Z,5.33
2018-04-06T16:46:25.746Z,5.50
2018-04-06T16:48:55.628Z,6.57
2018-04-06T16:51:25.140Z,5.63
2018-04-06T16:53:54.634Z,5.00
2018-04-06T16:56:24.152Z,5.10
2018-04-06T16:58:53.655Z,4.83
2018-04-06T17:01:23.337Z,5.47
2018-04-06T17:03:52.833Z,5.93
2018-04-06T17:06:22.319Z,5.27
2018-04-06T17:08:51.819Z,5.20
2018-04-06T17:11:21.304Z,5.60
2018-04-06T17:13:51.185Z,5.23
2018-04-06T17:16:20.682Z,4.63
2018-04-06T17:18:49.966Z,6.77
2018-04-06T17:21:19.454Z,7.90
2018-04-06T17:23:48.950Z,5.90
2018-04-06T17:26:18.828Z,8.13
2018-04-06T17:28:48.329Z,6.17
2018-04-06T17:31:17.816Z,5.97
2018-04-06T17:33:47.373Z,5.47
2018-04-06T17:36:17.270Z,4.33
2018-04-06T17:38:46.765Z,6.63
2018-04-06T17:41:16.280Z,5.43
2018-04-06T17:43:45.768Z,5.77
2018-04-06T17:46:15.269Z,5.50
2018-04-06T17:48:44.786Z,4.63
2018-04-06T17:51:14.274Z,5.73
2018-04-06T17:53:43.767Z,9.40
2018-04-06T17:56:13.282Z,5.17
2018-04-06T17:58:42.790Z,4.73
2018-04-06T18:01:12.282Z,5.63
2018-04-06T18:03:41.916Z,6.30
2018-04-06T18:06:11.410Z,5.37
2018-04-06T18:08:40.890Z,5.07
2018-04-06T18:11:10.381Z,5.07
2018-04-06T18:13:40.745Z,4.43
2018-04-06T18:16:10.078Z,4.73
2018-04-06T18:18:39.342Z,6.67
2018-04-06T18:21:08.850Z,7.03
2018-04-06T18:23:38.383Z,4.40
2018-04-06T18:26:07.877Z,4.67
2018-04-06T18:28:37.600Z,5.00
2018-04-06T18:31:06.887Z,4.53
2018-04-06T18:33:36.386Z,5.67
2018-04-06T18:36:05.887Z,5.90
2018-04-06T18:38:35.578Z,6.43
2018-04-06T18:41:05.068Z,6.03
2018-04-06T18:43:34.591Z,13.53
2018-04-06T18:46:04.125Z,7.90
2018-04-06T18:48:33.799Z,6.43
2018-04-06T18:51:03.302Z,10.33
2018-04-06T18:53:32.816Z,5.93
2018-04-06T18:56:02.320Z,6.33
2018-04-06T18:58:31.833Z,7.50
2018-04-06T19:01:01.510Z,7.53
2018-04-06T19:03:31.401Z,7.13
2018-04-06T19:06:00.886Z,6.67
2018-04-06T19:08:30.386Z,7.00
2018-04-06T19:10:59.887Z,5.70
2018-04-06T19:13:29.394Z,4.80
2018-04-06T19:15:58.929Z,4.87
2018-04-06T19:18:28.429Z,6.37
2018-04-06T19:20:57.920Z,5.07
2018-04-06T19:23:27.447Z,5.47
2018-04-06T19:25:57.336Z,9.97
2018-04-06T19:28:26.825Z,7.00
2018-04-06T19:30:56.321Z,7.20
2018-04-06T19:33:25.807Z,6.60
2018-04-06T19:35:55.307Z,7.30
2018-04-06T19:42:30.491Z,6.10
2018-04-06T19:45:00.188Z,6.40
2018-04-06T19:47:29.697Z,8.37
2018-04-06T19:49:58.954Z,7.00
2018-04-06T19:52:28.489Z,5.63
2018-04-06T19:54:58.379Z,5.93
2018-04-06T19:57:27.882Z,8.33
2018-04-06T19:59:57.390Z,6.50
2018-04-06T20:02:26.894Z,7.10
2018-04-06T20:04:56.403Z,5.93
2018-04-06T20:07:25.924Z,6.83
2018-04-06T20:09:55.813Z,7.10
2018-04-06T20:12:25.318Z,12.60
2018-04-06T20:14:54.810Z,7.77
2018-04-06T20:17:24.309Z,7.20
2018-04-06T20:19:53.807Z,5.97
2018-04-06T20:22:23.319Z,8.17
2018-04-06T20:24:52.825Z,7.57
2018-04-06T20:27:22.317Z,6.23
2018-04-06T20:29:51.806Z,5.90
2018-04-06T20:32:21.308Z,6.23
2018-04-06T20:34:50.805Z,8.50
2018-04-06T20:37:20.069Z,8.47
2018-04-06T20:39:49.571Z,10.40
2018-04-06T20:42:19.093Z,7.17
2018-04-06T20:44:48.595Z,7.60
2018-04-06T20:47:18.093Z,7.47
2018-04-06T20:49:47.621Z,9.93
2018-04-06T20:52:17.516Z,8.27
2018-04-06T20:54:47.225Z,7.47
2018-04-06T20:57:16.720Z,8.63
2018-04-06T20:59:46.218Z,7.37
2018-04-06T21:02:15.746Z,8.40
2018-04-06T21:04:45.276Z,11.60
2018-04-06T21:07:15.177Z,6.73
2018-04-06T21:09:45.070Z,6.63
2018-04-06T21:12:14.557Z,7.37
2018-04-06T21:14:44.086Z,8.00
2018-04-06T21:17:13.573Z,7.73
2018-04-06T21:19:43.066Z,7.87
2018-04-06T21:22:12.327Z,8.27
2018-04-06T21:24:42.231Z,7.57
2018-04-06T21:27:12.123Z,6.87
2018-04-06T21:29:41.382Z,7.37
2018-04-06T21:32:10.650Z,8.10
2018-04-06T21:34:40.546Z,6.90
2018-04-06T21:37:10.043Z,7.67
2018-04-06T21:39:39.550Z,8.43
2018-04-06T21:42:09.087Z,12.07
2018-04-06T21:44:38.533Z,8.13
2018-04-06T21:47:07.779Z,7.27
2018-04-06T21:49:37.707Z,9.37
2018-04-06T21:52:07.599Z,10.07
2018-04-06T21:54:37.083Z,7.20
2018-04-06T21:57:06.344Z,10.30
2018-04-06T21:59:35.620Z,7.47
2018-04-06T22:02:04.979Z,7.53
2018-04-06T22:04:34.466Z,15.90
2018-04-06T22:07:04.099Z,10.50
2018-04-06T22:09:33.361Z,9.43
2018-04-06T22:12:02.852Z,10.23
2018-04-06T22:14:32.742Z,8.13
2018-04-06T22:17:02.253Z,7.10
2018-04-06T22:19:31.736Z,10.30
2018-04-06T22:22:01.231Z,8.23
2018-04-06T22:24:30.745Z,9.03
2018-04-06T22:27:00.247Z,7.53
2018-04-06T22:29:29.739Z,9.23
2018-04-06T22:31:59.259Z,15.13
2018-04-06T22:34:28.767Z,9.13
2018-04-06T22:36:58.274Z,9.93
2018-04-06T22:39:27.794Z,11.63
2018-04-06T22:41:57.285Z,11.43
2018-04-06T22:44:26.797Z,10.13
2018-04-06T22:46:56.535Z,11.17
2018-04-06T22:49:26.457Z,13.83
2018-04-06T22:51:56.394Z,10.37
2018-04-06T22:54:25.921Z,10.53
2018-04-06T22:56:55.423Z,10.23
2018-04-06T22:59:24.937Z,11.43
2018-04-06T23:01:54.455Z,11.50
2018-04-06T23:04:23.975Z,12.67
2018-04-06T23:06:53.497Z,14.20
2018-04-06T23:09:23.393Z,12.50
2018-04-06T23:11:52.919Z,12.63
2018-04-06T23:14:22.835Z,11.83
2018-04-06T23:16:52.765Z,11.70
2018-04-06T23:19:22.700Z,13.63
2018-04-06T23:21:52.221Z,15.40
2018-04-06T23:24:21.751Z,12.57
2018-04-06T23:26:51.271Z,14.27
2018-04-06T23:29:20.762Z,13.70
2018-04-06T23:31:50.035Z,14.30
2018-04-06T23:34:19.531Z,14.90
2018-04-06T23:36:49.023Z,12.13
2018-04-06T23:39:18.511Z,14.23
2018-04-06T23:41:48.443Z,14.40
2018-04-06T23:44:17.935Z,11.23
2018-04-06T23:46:47.840Z,11.17
2018-04-06T23:49:17.730Z,12.80
2018-04-06T23:51:47.227Z,11.57
2018-04-06T23:54:16.714Z,14.17
2018-04-06T23:56:46.231Z,13.30
2018-04-06T23:59:15.730Z,15.57
